sensor_id;sensor_type;location;lat;lon;timestamp;pressure;altitude;pressure_sealevel;temperature;humidity
62201;BME280;48197;42.732;27.192;2023-05-16T00:01:48;99638.22;;;10.94;100.00
62201;BME280;48197;42.732;27.192;2023-05-16T00:04:15;99628.72;;;10.99;100.00
62201;BME280;48197;42.732;27.192;2023-05-16T00:06:43;99622.75;;;11.04;100.00
62201;BME280;48197;42.732;27.192;2023-05-16T00:09:10;99621.91;;;11.07;100.00
62201;BME280;48197;42.732;27.192;2023-05-16T00:11:36;99621.84;;;11.14;100.00
62201;BME280;48197;42.732;27.192;2023-05-16T00:14:04;99632.47;;;11.19;100.00
62201;BME280;48197;42.732;27.192;2023-05-16T00:16:31;99641.13;;;11.21;100.00
62201;BME280;48197;42.732;27.192;2023-05-16T00:18:57;99638.38;;;11.21;100.00
62201;BME280;48197;42.732;27.192;2023-05-16T00:21:25;99638.03;;;11.16;100.00
62201;BME280;48197;42.732;27.192;2023-05-16T00:23:52;99636.13;;;11.09;100.00
62201;BME280;48197;42.732;27.192;2023-05-16T00:26:19;99640.88;;;11.09;100.00
62201;BME280;48197;42.732;27.192;2023-05-16T00:28:46;99635.72;;;11.07;100.00
62201;BME280;48197;42.732;27.192;2023-05-16T00:31:13;99640.16;;;11.01;100.00
62201;BME280;48197;42.732;27.192;2023-05-16T00:33:40;99655.56;;;10.98;100.00
62201;BME280;48197;42.732;27.192;2023-05-16T00:36:07;99659.94;;;10.99;100.00
62201;BME280;48197;42.732;27.192;2023-05-16T00:38:33;99653.63;;;10.99;100.00
62201;BME280;48197;42.732;27.192;2023-05-16T00:41:00;99649.66;;;11.00;100.00
62201;BME280;48197;42.732;27.192;2023-05-16T00:43:28;99648.09;;;10.99;100.00
62201;BME280;48197;42.732;27.192;2023-05-16T00:45:55;99647.66;;;11.00;100.00
62201;BME280;48197;42.732;27.192;2023-05-16T00:48:22;99647.34;;;10.95;100.00
62201;BME280;48197;42.732;27.192;2023-05-16T00:50:48;99647.84;;;10.79;100.00
62201;BME280;48197;42.732;27.192;2023-05-16T00:53:16;99642.09;;;10.59;100.00
62201;BME280;48197;42.732;27.192;2023-05-16T00:55:43;99633.09;;;10.48;100.00
62201;BME280;48197;42.732;27.192;2023-05-16T00:58:10;99634.28;;;10.43;100.00
62201;BME280;48197;42.732;27.192;2023-05-16T01:00:38;99627.59;;;10.44;100.00
62201;BME280;48197;42.732;27.192;2023-05-16T01:03:06;99635.47;;;10.46;100.00
62201;BME280;48197;42.732;27.192;2023-05-16T01:05:33;99634.69;;;10.45;100.00
62201;BME280;48197;42.732;27.192;2023-05-16T01:08:00;99634.34;;;10.39;100.00
62201;BME280;48197;42.732;27.192;2023-05-16T01:10:29;99632.75;;;10.38;100.00
62201;BME280;48197;42.732;27.192;2023-05-16T01:13:07;99613.00;;;10.40;100.00
62201;BME280;48197;42.732;27.192;2023-05-16T01:15:43;99605.09;;;10.42;100.00
62201;BME280;48197;42.732;27.192;2023-05-16T01:18:24;99599.59;;;10.42;100.00
62201;BME280;48197;42.732;27.192;2023-05-16T01:21:03;99590.09;;;10.43;100.00
62201;BME280;48197;42.732;27.192;2023-05-16T01:23:43;99586.53;;;10.42;100.00
62201;BME280;48197;42.732;27.192;2023-05-16T01:28:42;99582.16;;;10.49;100.00
62201;BME280;48197;42.732;27.192;2023-05-16T01:31:09;99573.41;;;10.54;100.00
62201;BME280;48197;42.732;27.192;2023-05-16T01:33:36;99573.03;;;10.55;100.00
62201;BME280;48197;42.732;27.192;2023-05-16T01:38:55;99563.88;;;10.62;100.00
62201;BME280;48197;42.732;27.192;2023-05-16T01:41:29;99570.56;;;10.65;100.00
62201;BME280;48197;42.732;27.192;2023-05-16T01:44:01;99568.13;;;10.74;100.00
62201;BME280;48197;42.732;27.192;2023-05-16T01:46:32;99571.59;;;10.81;100.00
62201;BME280;48197;42.732;27.192;2023-05-16T01:49:04;99571.09;;;10.90;100.00
62201;BME280;48197;42.732;27.192;2023-05-16T01:51:33;99572.28;;;10.93;100.00
62201;BME280;48197;42.732;27.192;2023-05-16T01:54:04;99573.03;;;10.97;100.00
62201;BME280;48197;42.732;27.192;2023-05-16T01:56:31;99573.75;;;11.04;100.00
62201;BME280;48197;42.732;27.192;2023-05-16T01:58:58;99573.72;;;11.08;100.00
62201;BME280;48197;42.732;27.192;2023-05-16T02:01:27;99578.00;;;11.13;100.00
62201;BME280;48197;42.732;27.192;2023-05-16T02:03:56;99581.16;;;11.15;100.00
62201;BME280;48197;42.732;27.192;2023-05-16T02:06:23;99581.16;;;11.15;100.00
62201;BME280;48197;42.732;27.192;2023-05-16T02:08:51;99583.53;;;11.13;100.00
62201;BME280;48197;42.732;27.192;2023-05-16T02:11:18;99577.59;;;11.14;100.00
62201;BME280;48197;42.732;27.192;2023-05-16T02:13:45;99569.31;;;11.14;100.00
62201;BME280;48197;42.732;27.192;2023-05-16T02:16:13;99572.84;;;11.15;100.00
62201;BME280;48197;42.732;27.192;2023-05-16T02:18:40;99579.91;;;11.19;100.00
62201;BME280;48197;42.732;27.192;2023-05-16T02:21:08;99568.44;;;11.21;100.00
62201;BME280;48197;42.732;27.192;2023-05-16T02:23:35;99575.13;;;11.23;100.00
62201;BME280;48197;42.732;27.192;2023-05-16T02:26:02;99583.78;;;11.26;100.00
62201;BME280;48197;42.732;27.192;2023-05-16T02:28:30;99592.88;;;11.26;100.00
62201;BME280;48197;42.732;27.192;2023-05-16T02:30:57;99579.47;;;11.24;100.00
62201;BME280;48197;42.732;27.192;2023-05-16T02:33:25;99566.84;;;11.20;100.00
62201;BME280;48197;42.732;27.192;2023-05-16T02:35:53;99568.06;;;11.19;100.00
62201;BME280;48197;42.732;27.192;2023-05-16T02:38:19;99563.69;;;11.21;100.00
62201;BME280;48197;42.732;27.192;2023-05-16T02:40:47;99564.09;;;11.20;100.00
62201;BME280;48197;42.732;27.192;2023-05-16T02:43:15;99561.75;;;11.18;100.00
62201;BME280;48197;42.732;27.192;2023-05-16T02:45:42;99563.31;;;11.19;100.00
62201;BME280;48197;42.732;27.192;2023-05-16T02:48:09;99568.41;;;11.24;100.00
62201;BME280;48197;42.732;27.192;2023-05-16T02:50:36;99562.41;;;11.30;100.00
62201;BME280;48197;42.732;27.192;2023-05-16T02:53:05;99562.00;;;11.31;100.00
62201;BME280;48197;42.732;27.192;2023-05-16T02:55:32;99570.31;;;11.31;100.00
62201;BME280;48197;42.732;27.192;2023-05-16T02:57:59;99569.09;;;11.32;100.00
62201;BME280;48197;42.732;27.192;2023-05-16T03:00:26;99569.09;;;11.32;100.00
62201;BME280;48197;42.732;27.192;2023-05-16T03:02:53;99566.31;;;11.32;100.00
62201;BME280;48197;42.732;27.192;2023-05-16T03:05:20;99573.00;;;11.35;100.00
62201;BME280;48197;42.732;27.192;2023-05-16T03:07:47;99574.56;;;11.39;100.00
62201;BME280;48197;42.732;27.192;2023-05-16T03:10:14;99567.34;;;11.45;100.00
62201;BME280;48197;42.732;27.192;2023-05-16T03:12:41;99578.28;;;11.56;100.00
62201;BME280;48197;42.732;27.192;2023-05-16T03:15:08;99577.00;;;11.64;100.00
62201;BME280;48197;42.732;27.192;2023-05-16T03:17:35;99582.88;;;11.70;100.00
62201;BME280;48197;42.732;27.192;2023-05-16T03:20:02;99583.59;;;11.74;100.00
62201;BME280;48197;42.732;27.192;2023-05-16T03:22:30;99573.25;;;11.78;100.00
62201;BME280;48197;42.732;27.192;2023-05-16T03:24:57;99582.31;;;11.82;100.00
62201;BME280;48197;42.732;27.192;2023-05-16T03:27:25;99583.38;;;11.92;100.00
62201;BME280;48197;42.732;27.192;2023-05-16T03:29:51;99571.41;;;11.99;100.00
62201;BME280;48197;42.732;27.192;2023-05-16T03:32:18;99580.03;;;12.04;100.00
62201;BME280;48197;42.732;27.192;2023-05-16T03:34:45;99574.75;;;12.14;100.00
62201;BME280;48197;42.732;27.192;2023-05-16T03:37:12;99569.91;;;12.21;100.00
62201;BME280;48197;42.732;27.192;2023-05-16T03:39:41;99570.50;;;12.33;100.00
62201;BME280;48197;42.732;27.192;2023-05-16T03:42:08;99569.63;;;12.39;100.00
62201;BME280;48197;42.732;27.192;2023-05-16T03:44:35;99563.97;;;12.46;100.00
62201;BME280;48197;42.732;27.192;2023-05-16T03:47:02;99577.66;;;12.57;100.00
62201;BME280;48197;42.732;27.192;2023-05-16T03:49:30;99582.97;;;12.72;100.00
62201;BME280;48197;42.732;27.192;2023-05-16T03:51:57;99585.19;;;12.80;100.00
62201;BME280;48197;42.732;27.192;2023-05-16T03:54:24;99581.78;;;12.93;100.00
62201;BME280;48197;42.732;27.192;2023-05-16T03:56:51;99581.16;;;13.05;100.00
62201;BME280;48197;42.732;27.192;2023-05-16T03:59:17;99588.09;;;13.17;100.00
62201;BME280;48197;42.732;27.192;2023-05-16T04:01:45;99583.50;;;13.30;100.00
62201;BME280;48197;42.732;27.192;2023-05-16T04:04:12;99592.34;;;13.45;100.00
62201;BME280;48197;42.732;27.192;2023-05-16T04:06:39;99592.06;;;13.59;100.00
62201;BME280;48197;42.732;27.192;2023-05-16T04:09:06;99586.28;;;13.70;100.00
62201;BME280;48197;42.732;27.192;2023-05-16T04:11:33;99587.59;;;13.82;100.00
62201;BME280;48197;42.732;27.192;2023-05-16T04:14:02;99583.75;;;13.96;100.00
62201;BME280;48197;42.732;27.192;2023-05-16T04:16:29;99583.03;;;14.08;100.00
62201;BME280;48197;42.732;27.192;2023-05-16T04:18:56;99585.50;;;14.22;100.00
62201;BME280;48197;42.732;27.192;2023-05-16T04:21:23;99585.44;;;14.42;100.00
62201;BME280;48197;42.732;27.192;2023-05-16T04:23:49;99578.94;;;14.65;100.00
62201;BME280;48197;42.732;27.192;2023-05-16T04:26:17;99577.19;;;14.88;100.00
62201;BME280;48197;42.732;27.192;2023-05-16T04:28:44;99565.47;;;15.09;100.00
62201;BME280;48197;42.732;27.192;2023-05-16T04:31:11;99565.44;;;15.26;100.00
62201;BME280;48197;42.732;27.192;2023-05-16T04:33:39;99559.91;;;15.39;100.00
62201;BME280;48197;42.732;27.192;2023-05-16T04:36:07;99555.56;;;15.50;100.00
62201;BME280;48197;42.732;27.192;2023-05-16T04:38:34;99557.53;;;15.66;100.00
62201;BME280;48197;42.732;27.192;2023-05-16T04:41:01;99551.88;;;15.83;100.00
62201;BME280;48197;42.732;27.192;2023-05-16T04:43:29;99546.28;;;15.96;100.00
62201;BME280;48197;42.732;27.192;2023-05-16T04:45:56;99545.84;;;16.10;100.00
62201;BME280;48197;42.732;27.192;2023-05-16T04:48:24;99546.97;;;16.25;100.00
62201;BME280;48197;42.732;27.192;2023-05-16T04:50:51;99539.03;;;16.49;100.00
62201;BME280;48197;42.732;27.192;2023-05-16T04:53:18;99529.94;;;16.71;100.00
62201;BME280;48197;42.732;27.192;2023-05-16T04:55:45;99527.78;;;16.88;100.00
62201;BME280;48197;42.732;27.192;2023-05-16T04:58:12;99536.88;;;17.01;100.00
62201;BME280;48197;42.732;27.192;2023-05-16T05:00:40;99535.94;;;17.04;100.00
62201;BME280;48197;42.732;27.192;2023-05-16T05:03:06;99538.19;;;17.09;100.00
62201;BME280;48197;42.732;27.192;2023-05-16T05:05:33;99538.56;;;17.21;100.00
62201;BME280;48197;42.732;27.192;2023-05-16T05:08:01;99542.34;;;17.27;100.00
62201;BME280;48197;42.732;27.192;2023-05-16T05:10:27;99537.47;;;17.40;100.00
62201;BME280;48197;42.732;27.192;2023-05-16T05:12:56;99551.16;;;17.47;100.00
62201;BME280;48197;42.732;27.192;2023-05-16T05:15:23;99544.22;;;17.52;100.00
62201;BME280;48197;42.732;27.192;2023-05-16T05:17:50;99543.41;;;17.51;99.85
62201;BME280;48197;42.732;27.192;2023-05-16T05:20:17;99545.00;;;17.52;98.98
62201;BME280;48197;42.732;27.192;2023-05-16T05:22:44;99539.44;;;17.62;98.29
62201;BME280;48197;42.732;27.192;2023-05-16T05:25:11;99552.44;;;17.55;98.17
62201;BME280;48197;42.732;27.192;2023-05-16T05:27:38;99552.97;;;17.63;98.36
62201;BME280;48197;42.732;27.192;2023-05-16T05:30:05;99549.44;;;17.72;98.04
62201;BME280;48197;42.732;27.192;2023-05-16T05:32:32;99544.31;;;17.70;98.03
62201;BME280;48197;42.732;27.192;2023-05-16T05:34:59;99535.97;;;17.80;97.90
62201;BME280;48197;42.732;27.192;2023-05-16T05:37:26;99535.63;;;18.00;96.51
62201;BME280;48197;42.732;27.192;2023-05-16T05:39:53;99536.94;;;18.26;95.51
62201;BME280;48197;42.732;27.192;2023-05-16T05:42:20;99532.03;;;18.58;93.67
62201;BME280;48197;42.732;27.192;2023-05-16T05:44:47;99543.63;;;18.97;91.45
62201;BME280;48197;42.732;27.192;2023-05-16T05:47:14;99551.72;;;19.04;89.94
62201;BME280;48197;42.732;27.192;2023-05-16T05:49:41;99545.81;;;18.93;89.69
62201;BME280;48197;42.732;27.192;2023-05-16T05:52:08;99550.00;;;18.97;90.35
62201;BME280;48197;42.732;27.192;2023-05-16T05:54:36;99542.53;;;19.04;90.53
62201;BME280;48197;42.732;27.192;2023-05-16T05:57:03;99547.34;;;19.03;91.20
62201;BME280;48197;42.732;27.192;2023-05-16T05:59:29;99550.31;;;19.00;91.74
62201;BME280;48197;42.732;27.192;2023-05-16T06:01:55;99557.47;;;19.19;91.20
62201;BME280;48197;42.732;27.192;2023-05-16T06:04:23;99557.91;;;19.54;89.16
62201;BME280;48197;42.732;27.192;2023-05-16T06:06:50;99559.34;;;19.92;87.45
62201;BME280;48197;42.732;27.192;2023-05-16T06:09:17;99560.47;;;20.28;84.71
62201;BME280;48197;42.732;27.192;2023-05-16T06:11:42;99554.81;;;21.25;81.77
62201;BME280;48197;42.732;27.192;2023-05-16T06:14:12;99550.63;;;22.39;75.86
62201;BME280;48197;42.732;27.192;2023-05-16T06:16:40;99560.41;;;22.84;72.77
62201;BME280;48197;42.732;27.192;2023-05-16T06:19:07;99561.69;;;23.24;70.11
62201;BME280;48197;42.732;27.192;2023-05-16T06:21:34;99562.44;;;24.03;63.94
62201;BME280;48197;42.732;27.192;2023-05-16T06:24:01;99568.28;;;24.32;61.19
62201;BME280;48197;42.732;27.192;2023-05-16T06:26:28;99573.03;;;24.14;60.58
62201;BME280;48197;42.732;27.192;2023-05-16T06:28:55;99578.47;;;24.18;60.66
62201;BME280;48197;42.732;27.192;2023-05-16T06:31:22;99577.28;;;24.36;59.17
62201;BME280;48197;42.732;27.192;2023-05-16T06:33:50;99593.25;;;24.07;59.23
62201;BME280;48197;42.732;27.192;2023-05-16T06:36:18;99585.91;;;23.37;61.29
62201;BME280;48197;42.732;27.192;2023-05-16T06:38:45;99582.75;;;22.88;62.42
62201;BME280;48197;42.732;27.192;2023-05-16T06:41:12;99588.47;;;22.73;62.68
62201;BME280;48197;42.732;27.192;2023-05-16T06:43:40;99583.19;;;23.22;62.29
62201;BME280;48197;42.732;27.192;2023-05-16T06:46:07;99576.41;;;23.87;60.47
62201;BME280;48197;42.732;27.192;2023-05-16T06:48:34;99573.97;;;24.37;59.05
62201;BME280;48197;42.732;27.192;2023-05-16T06:51:00;99559.72;;;25.18;57.84
62201;BME280;48197;42.732;27.192;2023-05-16T06:53:27;99561.88;;;25.57;56.59
62201;BME280;48197;42.732;27.192;2023-05-16T06:55:55;99554.63;;;26.40;54.50
62201;BME280;48197;42.732;27.192;2023-05-16T06:58:22;99554.94;;;27.54;51.87
62201;BME280;48197;42.732;27.192;2023-05-16T07:00:49;99562.69;;;28.19;49.77
62201;BME280;48197;42.732;27.192;2023-05-16T07:03:15;99562.41;;;28.91;47.76
62201;BME280;48197;42.732;27.192;2023-05-16T07:05:42;99557.22;;;29.14;45.69
62201;BME280;48197;42.732;27.192;2023-05-16T07:08:09;99560.28;;;28.54;46.62
62201;BME280;48197;42.732;27.192;2023-05-16T07:10:38;99559.00;;;28.00;46.68
62201;BME280;48197;42.732;27.192;2023-05-16T07:13:05;99560.09;;;27.08;48.16
62201;BME280;48197;42.732;27.192;2023-05-16T07:15:32;99549.09;;;26.82;49.68
62201;BME280;48197;42.732;27.192;2023-05-16T07:17:59;99547.91;;;27.19;49.55
62201;BME280;48197;42.732;27.192;2023-05-16T07:20:26;99554.22;;;27.78;48.25
62201;BME280;48197;42.732;27.192;2023-05-16T07:22:53;99549.59;;;27.80;48.01
62201;BME280;48197;42.732;27.192;2023-05-16T07:25:23;99541.34;;;28.07;47.58
62201;BME280;48197;42.732;27.192;2023-05-16T07:27:50;99540.25;;;28.40;46.06
62201;BME280;48197;42.732;27.192;2023-05-16T07:30:17;99542.84;;;28.14;46.05
62201;BME280;48197;42.732;27.192;2023-05-16T07:32:45;99536.53;;;27.66;47.09
62201;BME280;48197;42.732;27.192;2023-05-16T07:35:11;99529.56;;;26.78;48.34
62201;BME280;48197;42.732;27.192;2023-05-16T07:37:39;99533.81;;;26.15;50.12
62201;BME280;48197;42.732;27.192;2023-05-16T07:40:08;99543.63;;;25.80;50.66
62201;BME280;48197;42.732;27.192;2023-05-16T07:42:35;99547.72;;;25.79;49.79
62201;BME280;48197;42.732;27.192;2023-05-16T07:45:02;99559.31;;;25.87;49.26
62201;BME280;48197;42.732;27.192;2023-05-16T07:47:29;99565.72;;;25.87;49.54
62201;BME280;48197;42.732;27.192;2023-05-16T07:49:56;99569.13;;;26.14;49.24
62201;BME280;48197;42.732;27.192;2023-05-16T07:52:23;99571.63;;;26.35;48.42
62201;BME280;48197;42.732;27.192;2023-05-16T07:54:50;99578.78;;;26.75;47.63
62201;BME280;48197;42.732;27.192;2023-05-16T07:57:18;99582.63;;;27.78;45.94
62201;BME280;48197;42.732;27.192;2023-05-16T07:59:45;99586.28;;;28.33;42.35
62201;BME280;48197;42.732;27.192;2023-05-16T08:02:12;99582.91;;;27.38;44.12
62201;BME280;48197;42.732;27.192;2023-05-16T08:04:39;99586.41;;;27.56;43.37
62201;BME280;48197;42.732;27.192;2023-05-16T08:07:06;99559.94;;;26.83;43.85
62201;BME280;48197;42.732;27.192;2023-05-16T08:09:33;99594.25;;;26.74;43.27
62201;BME280;48197;42.732;27.192;2023-05-16T08:12:01;99580.97;;;27.11;42.20
62201;BME280;48197;42.732;27.192;2023-05-16T08:14:33;99573.03;;;28.17;41.31
62201;BME280;48197;42.732;27.192;2023-05-16T08:17:02;99577.03;;;29.01;39.57
62201;BME280;48197;42.732;27.192;2023-05-16T08:19:28;99566.91;;;29.43;36.88
62201;BME280;48197;42.732;27.192;2023-05-16T08:21:56;99559.78;;;29.37;36.32
62201;BME280;48197;42.732;27.192;2023-05-16T08:24:23;99567.03;;;29.70;35.33
62201;BME280;48197;42.732;27.192;2023-05-16T08:26:51;99560.66;;;29.64;33.20
62201;BME280;48197;42.732;27.192;2023-05-16T08:29:18;99556.22;;;29.49;32.96
62201;BME280;48197;42.732;27.192;2023-05-16T08:31:45;99555.06;;;29.39;33.37
62201;BME280;48197;42.732;27.192;2023-05-16T08:34:10;99556.16;;;29.36;33.36
62201;BME280;48197;42.732;27.192;2023-05-16T08:36:37;99549.38;;;29.39;33.01
62201;BME280;48197;42.732;27.192;2023-05-16T08:39:04;99540.22;;;29.08;32.12
62201;BME280;48197;42.732;27.192;2023-05-16T08:41:32;99547.28;;;28.83;33.50
62201;BME280;48197;42.732;27.192;2023-05-16T08:43:59;99544.56;;;28.71;33.15
62201;BME280;48197;42.732;27.192;2023-05-16T08:46:26;99549.38;;;28.58;32.57
62201;BME280;48197;42.732;27.192;2023-05-16T08:48:56;99545.34;;;28.47;33.55
62201;BME280;48197;42.732;27.192;2023-05-16T08:51:26;99548.00;;;28.40;33.10
62201;BME280;48197;42.732;27.192;2023-05-16T08:54:03;99541.50;;;28.45;32.54
62201;BME280;48197;42.732;27.192;2023-05-16T08:56:32;99543.34;;;28.42;33.27
62201;BME280;48197;42.732;27.192;2023-05-16T08:59:00;99533.19;;;28.47;32.25
62201;BME280;48197;42.732;27.192;2023-05-16T09:01:28;99529.16;;;28.61;33.22
62201;BME280;48197;42.732;27.192;2023-05-16T09:03:56;99525.88;;;28.76;33.14
62201;BME280;48197;42.732;27.192;2023-05-16T09:06:24;99525.59;;;28.80;34.37
62201;BME280;48197;42.732;27.192;2023-05-16T09:08:52;99526.69;;;28.77;33.90
62201;BME280;48197;42.732;27.192;2023-05-16T09:11:19;99529.00;;;28.54;34.08
62201;BME280;48197;42.732;27.192;2023-05-16T09:13:47;99520.72;;;28.56;33.37
62201;BME280;48197;42.732;27.192;2023-05-16T09:16:15;99528.34;;;28.42;32.38
62201;BME280;48197;42.732;27.192;2023-05-16T09:18:44;99528.19;;;28.34;33.54
62201;BME280;48197;42.732;27.192;2023-05-16T09:21:12;99526.69;;;28.27;33.80
62201;BME280;48197;42.732;27.192;2023-05-16T09:23:39;99517.53;;;28.84;34.14
62201;BME280;48197;42.732;27.192;2023-05-16T09:26:08;99509.06;;;29.35;31.94
62201;BME280;48197;42.732;27.192;2023-05-16T09:28:36;99506.75;;;28.58;31.31
62201;BME280;48197;42.732;27.192;2023-05-16T09:31:27;99500.09;;;28.00;33.26
62201;BME280;48197;42.732;27.192;2023-05-16T09:33:56;99488.91;;;28.33;33.17
62201;BME280;48197;42.732;27.192;2023-05-16T09:36:24;99486.31;;;27.80;31.85
62201;BME280;48197;42.732;27.192;2023-05-16T09:38:51;99488.41;;;27.07;32.95
62201;BME280;48197;42.732;27.192;2023-05-16T10:13:01;99473.22;;;27.46;31.58
62201;BME280;48197;42.732;27.192;2023-05-16T10:15:29;99465.34;;;26.86;31.67
62201;BME280;48197;42.732;27.192;2023-05-16T10:17:56;99458.78;;;26.50;32.75
62201;BME280;48197;42.732;27.192;2023-05-16T10:20:27;99459.78;;;26.58;32.81
62201;BME280;48197;42.732;27.192;2023-05-16T10:22:56;99465.38;;;26.81;31.89
62201;BME280;48197;42.732;27.192;2023-05-16T10:25:31;99461.75;;;27.27;31.59
62201;BME280;48197;42.732;27.192;2023-05-16T10:27:59;99458.31;;;27.65;31.48
62201;BME280;48197;42.732;27.192;2023-05-16T10:30:27;99450.22;;;28.05;29.73
62201;BME280;48197;42.732;27.192;2023-05-16T10:32:54;99436.09;;;28.43;29.32
62201;BME280;48197;42.732;27.192;2023-05-16T10:35:22;99438.59;;;28.52;28.46
62201;BME280;48197;42.732;27.192;2023-05-16T10:37:49;99438.81;;;28.73;27.97
62201;BME280;48197;42.732;27.192;2023-05-16T10:40:17;99432.31;;;28.59;28.07
62201;BME280;48197;42.732;27.192;2023-05-16T10:43:05;99430.06;;;28.90;26.64
62201;BME280;48197;42.732;27.192;2023-05-16T10:45:31;99428.13;;;29.63;26.97
62201;BME280;48197;42.732;27.192;2023-05-16T10:47:58;99431.72;;;30.09;26.26
62201;BME280;48197;42.732;27.192;2023-05-16T10:58:39;99401.25;;;30.17;25.94
62201;BME280;48197;42.732;27.192;2023-05-16T11:06:30;99383.47;;;30.72;25.87
62201;BME280;48197;42.732;27.192;2023-05-16T11:11:46;99368.66;;;31.29;25.46
62201;BME280;48197;42.732;27.192;2023-05-16T11:14:16;99369.28;;;31.14;27.76
62201;BME280;48197;42.732;27.192;2023-05-16T11:16:47;99362.09;;;31.21;27.72
62201;BME280;48197;42.732;27.192;2023-05-16T11:19:27;99363.56;;;31.35;26.49
62201;BME280;48197;42.732;27.192;2023-05-16T11:22:11;99369.31;;;31.64;26.49
62201;BME280;48197;42.732;27.192;2023-05-16T11:25:02;99373.00;;;32.01;26.61
62201;BME280;48197;42.732;27.192;2023-05-16T11:27:33;99371.19;;;31.61;27.17
62201;BME280;48197;42.732;27.192;2023-05-16T11:32:36;99363.59;;;31.92;26.27
62201;BME280;48197;42.732;27.192;2023-05-16T11:35:04;99357.84;;;32.13;25.52
62201;BME280;48197;42.732;27.192;2023-05-16T11:37:30;99361.16;;;32.33;25.65
62201;BME280;48197;42.732;27.192;2023-05-16T11:40:02;99375.63;;;32.87;25.57
62201;BME280;48197;42.732;27.192;2023-05-16T11:42:29;99365.91;;;32.98;24.14
62201;BME280;48197;42.732;27.192;2023-05-16T11:45:08;99370.41;;;32.54;24.90
62201;BME280;48197;42.732;27.192;2023-05-16T11:47:39;99369.91;;;31.41;25.30
62201;BME280;48197;42.732;27.192;2023-05-16T11:50:27;99364.66;;;31.11;25.94
62201;BME280;48197;42.732;27.192;2023-05-16T11:52:53;99359.38;;;30.60;26.10
62201;BME280;48197;42.732;27.192;2023-05-16T11:55:24;99355.91;;;30.88;25.25
62201;BME280;48197;42.732;27.192;2023-05-16T11:57:52;99353.63;;;31.07;25.90
62201;BME280;48197;42.732;27.192;2023-05-16T12:00:20;99356.94;;;30.43;26.27
62201;BME280;48197;42.732;27.192;2023-05-16T12:02:47;99345.78;;;29.51;27.44
62201;BME280;48197;42.732;27.192;2023-05-16T12:05:15;99345.13;;;29.59;27.61
62201;BME280;48197;42.732;27.192;2023-05-16T12:07:43;99349.97;;;30.86;26.89
62201;BME280;48197;42.732;27.192;2023-05-16T12:10:11;99350.31;;;32.03;25.44
62201;BME280;48197;42.732;27.192;2023-05-16T12:12:40;99355.97;;;32.83;24.12
62201;BME280;48197;42.732;27.192;2023-05-16T12:15:08;99356.72;;;32.84;23.84
62201;BME280;48197;42.732;27.192;2023-05-16T12:17:38;99343.38;;;32.79;24.29
62201;BME280;48197;42.732;27.192;2023-05-16T12:20:07;99352.97;;;32.45;24.46
62201;BME280;48197;42.732;27.192;2023-05-16T12:22:42;99355.47;;;32.04;25.23
62201;BME280;48197;42.732;27.192;2023-05-16T12:25:23;99359.31;;;31.78;25.60
62201;BME280;48197;42.732;27.192;2023-05-16T12:27:52;99351.38;;;31.34;25.84
62201;BME280;48197;42.732;27.192;2023-05-16T12:30:20;99351.72;;;30.89;25.68
62201;BME280;48197;42.732;27.192;2023-05-16T12:33:09;99344.97;;;31.00;26.22
62201;BME280;48197;42.732;27.192;2023-05-16T12:35:37;99346.53;;;31.01;26.22
62201;BME280;48197;42.732;27.192;2023-05-16T12:38:07;99352.94;;;30.80;26.17
62201;BME280;48197;42.732;27.192;2023-05-16T12:40:36;99340.53;;;30.57;26.61
62201;BME280;48197;42.732;27.192;2023-05-16T12:43:14;99353.97;;;30.69;26.79
62201;BME280;48197;42.732;27.192;2023-05-16T12:45:42;99338.09;;;30.95;26.75
62201;BME280;48197;42.732;27.192;2023-05-16T12:48:14;99352.06;;;31.77;25.83
62201;BME280;48197;42.732;27.192;2023-05-16T12:50:41;99355.06;;;31.43;25.44
62201;BME280;48197;42.732;27.192;2023-05-16T12:53:14;99351.34;;;31.56;25.82
62201;BME280;48197;42.732;27.192;2023-05-16T12:55:42;99341.97;;;31.76;24.95
62201;BME280;48197;42.732;27.192;2023-05-16T12:58:09;99345.31;;;31.38;25.89
62201;BME280;48197;42.732;27.192;2023-05-16T13:00:37;99342.13;;;31.21;26.36
62201;BME280;48197;42.732;27.192;2023-05-16T13:03:07;99340.00;;;30.45;26.78
62201;BME280;48197;42.732;27.192;2023-05-16T13:05:34;99339.59;;;29.21;27.19
62201;BME280;48197;42.732;27.192;2023-05-16T13:08:01;99336.13;;;28.96;28.52
62201;BME280;48197;42.732;27.192;2023-05-16T13:10:28;99334.16;;;29.49;27.30
62201;BME280;48197;42.732;27.192;2023-05-16T13:12:55;99340.50;;;30.22;26.42
62201;BME280;48197;42.732;27.192;2023-05-16T13:15:25;99341.88;;;30.90;25.84
62201;BME280;48197;42.732;27.192;2023-05-16T13:17:51;99339.78;;;31.11;25.37
62201;BME280;48197;42.732;27.192;2023-05-16T13:20:17;99336.72;;;31.09;25.72
62201;BME280;48197;42.732;27.192;2023-05-16T13:22:45;99342.97;;;31.08;25.27
62201;BME280;48197;42.732;27.192;2023-05-16T13:25:13;99347.56;;;30.90;25.63
62201;BME280;48197;42.732;27.192;2023-05-16T13:27:40;99347.84;;;30.65;25.29
62201;BME280;48197;42.732;27.192;2023-05-16T13:30:07;99345.66;;;30.10;24.98
62201;BME280;48197;42.732;27.192;2023-05-16T13:32:34;99338.38;;;29.29;24.47
62201;BME280;48197;42.732;27.192;2023-05-16T13:35:01;99343.31;;;28.97;25.38
62201;BME280;48197;42.732;27.192;2023-05-16T13:37:29;99332.47;;;28.95;25.48
62201;BME280;48197;42.732;27.192;2023-05-16T13:39:57;99331.28;;;28.90;24.67
62201;BME280;48197;42.732;27.192;2023-05-16T13:42:24;99331.72;;;28.62;25.37
62201;BME280;48197;42.732;27.192;2023-05-16T13:44:51;99331.38;;;28.85;25.97
62201;BME280;48197;42.732;27.192;2023-05-16T13:47:19;99336.84;;;28.45;26.47